Latest Weather Observations for Dum In Mirrie

IDD60901

Issued at 9:01 am CST Tuesday 4 August 2015 (issued every 10 minutes, with the page automatically refreshed every 10 minutes)

About weather observations | Map of Darwin area stations | Latest observations for Darwin area | Other Formats
Station Details ID: 014277 Name: DUM IN MIRRIE AIRSTRIP Lat: -12.63 Lon: 130.37 Height: 3.5 m
Data from the previous 72 hours. | See also: Recent months at Dum In Mirrie
Date/Time
CST
Tmp

°C
App
Tmp
°C
Dew
Point
°C
Rel
Hum
%
Delta-T

°C
Wind Press
QNH
hPa
Press
MSL
hPa
Rain
since
9 am
mm
Dir
 
Spd
km/h
Gust
km/h
Spd
kts
Gust
kts
04/09:00am 23.5 26.3 20.8 85 1.8 SE 7 11 4 6 1016.8 1016.8 0.0
04/08:30am 22.3 26.3 22.0 98 0.2 SE 4 9 2 5 1016.5 1016.5 0.0
04/08:00am 21.7 25.4 21.5 99 0.1 SE 4 7 2 4 1016.1 1016.1 0.0
04/07:30am 21.3 24.4 21.0 98 0.2 SSE 6 9 3 5 1015.9 1015.9 0.0
04/07:00am 21.2 24.2 20.9 98 0.2 SE 6 13 3 7 1015.6 1015.6 0.0
04/06:30am 21.1 24.4 20.8 98 0.2 SSE 4 7 2 4 1015.3 1015.3 0.0
04/06:00am 21.3 24.2 21.0 98 0.2 S 7 13 4 7 1015.1 1015.1 0.0
04/05:30am 20.8 24.8 20.5 98 0.2 CALM 0 0 0 0 1014.6 1014.6 0.0
04/05:00am 21.5 25.8 21.2 98 0.2 CALM 0 2 0 1 1014.4 1014.4 0.0
04/04:30am 21.6 25.6 21.3 98 0.2 SE 2 4 1 2 1014.5 1014.5 0.0
04/04:00am 21.7 25.4 21.4 98 0.2 SE 4 6 2 3 1014.6 1014.6 0.0
04/03:30am 22.1 26.0 21.8 98 0.2 SSE 4 7 2 4 1014.5 1014.5 0.0
04/03:00am 21.9 25.7 21.6 98 0.2 SE 4 6 2 3 1014.6 1014.6 0.0
04/02:30am 21.6 25.1 21.1 97 0.3 SSE 4 6 2 3 1014.6 1014.6 0.0
04/02:00am 20.8 23.9 19.6 93 0.8 S 2 4 1 2 1014.8 1014.8 0.0
04/01:30am 21.4 24.8 20.2 93 0.8 S 2 4 1 2 1014.9 1014.9 0.0
04/01:00am 22.0 25.3 20.8 93 0.8 SSE 4 6 2 3 1015.3 1015.3 0.0
04/12:30am 22.7 26.6 21.2 91 1.0 SE 2 4 1 2 1015.5 1015.5 0.0
04/12:00am 23.2 26.9 21.5 90 1.1 S 4 6 2 3 1015.5 1015.5 0.0
 
Date/Time
CST
Tmp

°C
App
Tmp
°C
Dew
Point
°C
Rel
Hum
%
Delta-T

°C
Wind Press
QNH
hPa
Press
MSL
hPa
Rain
since
9 am
mm
Dir
 
Spd
km/h
Gust
km/h
Spd
kts
Gust
kts
03/11:30pm 23.7 27.7 21.4 87 1.5 SE 2 6 1 3 1015.4 1015.4 0.0
03/11:00pm 24.0 27.9 21.1 84 1.9 SSW 2 7 1 4 1015.4 1015.4 0.0
03/10:30pm 24.8 28.1 21.5 82 2.2 SSW 6 11 3 6 1015.5 1015.5 0.0
03/10:00pm 25.2 27.8 21.9 82 2.2 SSW 11 19 6 10 1015.1 1015.1 0.0
03/09:30pm 25.2 27.9 21.3 79 2.6 SW 9 15 5 8 1014.9 1014.9 0.0
03/09:00pm 25.1 28.1 21.2 79 2.6 SW 7 11 4 6 1014.9 1014.9 0.0
03/08:30pm 25.1 28.7 21.2 79 2.6 SW 4 7 2 4 1014.6 1014.6 0.0
03/08:00pm 25.2 28.7 21.1 78 2.7 SW 4 7 2 4 1014.3 1014.3 0.0
03/07:30pm 25.1 28.2 21.0 78 2.7 W 6 9 3 5 1013.8 1013.8 0.0
03/07:00pm 25.3 28.3 20.8 76 3.0 W 6 9 3 5 1013.6 1013.6 0.0
03/06:30pm 25.6 28.2 20.4 73 3.4 W 7 9 4 5 1013.3 1013.3 0.0
03/06:00pm 26.5 29.3 20.8 71 3.8 W 7 13 4 7 1013.1 1013.1 0.0
03/05:30pm 27.3 30.0 20.6 67 4.4 WNW 7 11 4 6 1013.0 1013.0 0.0
03/05:00pm 27.4 30.0 20.5 66 4.5 W 7 13 4 7 1012.6 1012.6 0.0
03/04:30pm 27.9 30.0 20.2 63 5.0 WNW 9 15 5 8 1012.5 1012.5 0.0
03/04:00pm 28.3 30.6 20.6 63 5.1 NW 9 17 5 9 1012.5 1012.5 0.0
03/03:30pm 28.4 30.5 20.2 61 5.4 WNW 9 15 5 8 1012.6 1012.6 0.0
03/03:00pm 28.7 30.4 20.2 60 5.6 NW 11 20 6 11 1012.7 1012.7 0.0
03/02:30pm 28.7 29.9 19.9 59 5.8 N 13 20 7 11 1012.9 1012.9 0.0
03/02:00pm 28.4 28.6 19.3 57 5.9 N 17 28 9 15 1013.3 1013.3 0.0
03/01:30pm 28.4 28.6 19.3 57 5.9 N 17 24 9 13 1014.0 1014.0 0.0
03/01:00pm 28.6 29.6 19.5 58 5.9 N 13 20 7 11 1014.6 1014.6 0.0
03/12:30pm 27.9 29.6 20.2 63 5.0 N 11 19 6 10 1015.1 1015.1 0.0
03/12:00pm 28.2 29.7 19.7 60 5.5 N 11 19 6 10 1015.5 1015.5 0.0
03/11:30am 27.8 29.3 19.8 61 5.2 N 11 17 6 9 1015.9 1015.9 0.0
03/11:00am 28.2 29.8 19.2 58 5.8 N 9 13 5 7 1016.3 1016.3 0.0
03/10:30am 28.0 29.9 19.8 61 5.3 N 9 17 5 9 1016.4 1016.4 0.0
03/10:00am 27.2 29.1 19.8 64 4.8 NE 9 17 5 9 1016.5 1016.5 0.0
03/09:30am 26.6 29.1 20.2 68 4.2 ENE 7 11 4 6 1016.6 1016.6 0.0
03/09:00am 25.1 27.6 19.9 73 3.4 ESE 6 7 3 4 1016.5 1016.5 0.0
03/08:30am 24.0 27.6 20.5 81 2.3 E 2 4 1 2 1016.3 1016.3 0.0
03/08:00am 21.8 25.2 21.0 95 0.5 E 4 6 2 3 1016.2 1016.2 0.0
03/07:30am 20.8 24.0 20.5 98 0.2 ESE 4 6 2 3 1015.9 1015.9 0.0
03/07:00am 20.6 23.7 20.3 98 0.2 ESE 4 6 2 3 1015.6 1015.6 0.0
03/06:30am 20.1 22.6 19.8 98 0.2 ESE 6 7 3 4 1015.4 1015.4 0.0
03/06:00am 19.3 21.5 18.3 94 0.6 ESE 4 6 2 3 1015.2 1015.2 0.0
03/05:30am 19.5 21.7 18.3 93 0.7 ESE 4 4 2 2 1015.0 1015.0 0.0
03/05:00am 20.7 23.8 20.2 97 0.3 SE 4 6 2 3 1014.9 1014.9 0.0
03/04:30am 20.4 23.7 19.9 97 0.3 SE 2 4 1 2 1014.8 1014.8 0.0
03/04:00am 19.3 21.5 18.3 94 0.6 SSE 4 6 2 3 1014.8 1014.8 0.0
03/03:30am 18.9 21.1 17.4 91 0.9 ESE 2 4 1 2 1015.1 1015.1 0.0
03/03:00am 19.9 22.2 18.6 92 0.8 ESE 4 6 2 3 1015.2 1015.2 0.0
03/02:30am 20.4 22.5 18.9 91 0.9 ESE 6 6 3 3 1015.4 1015.4 0.0
03/02:00am 20.9 23.0 19.0 89 1.2 E 6 7 3 4 1015.6 1015.6 0.0
03/01:30am 21.3 23.6 19.4 89 1.2 SSE 6 6 3 3 1015.7 1015.7 0.0
03/01:00am 21.4 24.1 19.5 89 1.2 SSE 4 7 2 4 1015.8 1015.8 0.0
03/12:30am 21.7 24.5 19.6 88 1.3 SSE 4 6 2 3 1015.7 1015.7 0.0
03/12:00am 22.4 24.8 20.1 87 1.5 SSE 7 13 4 7 1015.7 1015.7 0.0
 
Date/Time
CST
Tmp

°C
App
Tmp
°C
Dew
Point
°C
Rel
Hum
%
Delta-T

°C
Wind Press
QNH
hPa
Press
MSL
hPa
Rain
since
9 am
mm
Dir
 
Spd
km/h
Gust
km/h
Spd
kts
Gust
kts
02/11:30pm 20.9 23.7 19.6 92 0.8 SSE 4 6 2 3 1015.6 1015.6 0.0
02/11:00pm 19.8 22.0 17.4 86 1.5 SSE 2 4 1 2 1015.6 1015.6 0.0
02/10:30pm 20.2 22.5 17.8 86 1.5 SSW 2 2 1 1 1015.4 1015.4 0.0
02/10:00pm 20.2 22.3 17.2 83 1.8 SW 2 2 1 1 1015.0 1015.0 0.0
02/09:30pm 20.7 22.8 17.3 81 2.1 SW 2 4 1 2 1014.8 1014.8 0.0
02/09:00pm 21.2 23.3 18.2 83 1.9 WSW 4 4 2 2 1014.6 1014.6 0.0
02/08:30pm 21.5 23.7 17.5 78 2.5 W 2 4 1 2 1014.4 1014.4 0.0
02/08:00pm 21.7 24.0 17.7 78 2.5 WNW 2 4 1 2 1014.1 1014.1 0.0
02/07:30pm 22.6 25.1 17.3 72 3.3 CALM 0 0 0 0 1013.8 1013.8 0.0
02/07:00pm 24.6 26.5 17.6 65 4.4 N 4 6 2 3 1013.5 1013.5 0.0
02/06:30pm 25.6 27.2 17.8 62 4.9 N 6 9 3 5 1013.3 1013.3 0.0
02/06:00pm 26.9 27.9 17.7 57 5.8 N 9 20 5 11 1013.1 1013.1 0.0
02/05:30pm 27.3 27.4 17.5 55 6.2 N 13 19 7 10 1012.9 1012.9 0.0
02/05:00pm 27.7 27.6 16.9 51 6.7 N 13 22 7 12 1012.8 1012.8 0.0
02/04:30pm 28.4 29.1 17.9 53 6.7 NNW 11 19 6 10 1012.8 1012.8 0.0
02/04:00pm 28.6 29.4 18.1 53 6.7 NNW 11 19 6 10 1013.0 1013.0 0.0
02/03:30pm 28.7 28.3 17.2 49 7.2 N 15 24 8 13 1013.0 1013.0 0.0
02/03:00pm 28.4 27.1 17.3 51 7.0 N 20 28 11 15 1013.2 1013.2 0.0
02/02:30pm 28.8 28.4 18.0 52 6.9 N 17 26 9 14 1013.8 1013.8 0.0
02/02:00pm 28.9 28.4 17.7 50 7.1 N 17 26 9 14 1014.3 1014.3 0.0
02/01:30pm 28.6 28.7 18.4 54 6.5 N 15 26 8 14 1014.7 1014.7 0.0
02/01:00pm 28.7 29.1 19.1 56 6.2 NNE 15 22 8 12 1015.1 1015.1 0.0
02/12:30pm 29.8 31.0 18.3 50 7.4 NE 9 17 5 9 1015.8 1015.8 0.0
02/12:00pm 29.2 30.1 18.3 51 7.0 ENE 11 19 6 10 1016.3 1016.3 0.0
02/11:30am 28.6 29.6 18.7 55 6.4 NE 11 19 6 10 1016.6 1016.6 0.0
02/11:00am 28.1 29.2 19.6 60 5.5 NE 13 20 7 11 1016.8 1016.8 0.0
02/10:30am 27.1 28.4 19.4 62 5.0 NE 11 19 6 10 1016.8 1016.8 0.0
02/10:00am 27.1 28.8 20.2 66 4.5 ENE 11 20 6 11 1017.1 1017.1 0.0
02/09:30am 26.2 27.9 20.1 69 4.0 ENE 11 17 6 9 1017.1 1017.1 0.0
02/09:00am 25.4 28.0 20.4 74 3.3 NE 7 13 4 7 1016.8 1016.8 0.0
02/08:30am 24.1 27.7 21.2 84 1.9 ENE 4 7 2 4 1016.5 1016.5 0.0
02/08:00am 22.2 24.9 20.3 89 1.2 E 6 7 3 4 1016.1 1016.1 0.0
02/07:30am 21.4 24.3 21.1 98 0.2 ESE 7 13 4 7 1015.8 1015.8 0.0
02/07:00am 20.4 23.0 20.1 98 0.2 E 6 9 3 5 1015.2 1015.2 0.0
02/06:30am 18.2 20.1 17.7 97 0.3 E 4 6 2 3 1014.8 1014.8 0.0
02/06:00am 17.5 19.1 16.9 96 0.4 ENE 4 4 2 2 1014.5 1014.5 0.0
02/05:30am 18.3 21.0 17.8 97 0.3 CALM 0 2 0 1 1014.4 1014.4 0.0
02/05:00am 17.9 20.0 17.3 96 0.4 E 2 2 1 1 1014.2 1014.2 0.0
02/04:30am 17.9 20.3 16.9 94 0.6 CALM 0 2 0 1 1014.1 1014.1 0.0
02/04:00am 18.2 20.3 17.2 94 0.6 ESE 2 2 1 1 1014.1 1014.1 0.0
02/03:30am 18.1 20.1 17.0 93 0.7 SE 2 4 1 2 1014.1 1014.1 0.0
02/03:00am 18.5 21.0 17.3 93 0.7 CALM 0 0 0 0 1014.0 1014.0 0.0
02/02:30am 18.6 21.2 17.4 93 0.7 CALM 0 0 0 0 1014.2 1014.2 0.0
02/02:00am 19.1 21.9 17.9 93 0.7 CALM 0 0 0 0 1014.2 1014.2 0.0
02/01:30am 18.9 21.5 17.4 91 0.9 CALM 0 0 0 0 1014.4 1014.4 0.0
02/01:00am 20.2 23.2 19.2 94 0.6 S 2 4 1 2 1014.4 1014.4 0.0
02/12:30am 19.8 22.5 18.6 93 0.7 SSE 2 2 1 1 1014.4 1014.4 0.0
02/12:00am 20.1 22.8 18.6 91 0.9 SSE 2 4 1 2 1014.6 1014.6 0.0
 
Date/Time
CST
Tmp

°C
App
Tmp
°C
Dew
Point
°C
Rel
Hum
%
Delta-T

°C
Wind Press
QNH
hPa
Press
MSL
hPa
Rain
since
9 am
mm
Dir
 
Spd
km/h
Gust
km/h
Spd
kts
Gust
kts
01/11:30pm 19.9 22.0 18.0 89 1.2 SSE 4 6 2 3 1014.7 1014.7 0.0
01/11:00pm 19.8 22.4 17.6 87 1.3 CALM 0 0 0 0 1014.6 1014.6 0.0
01/10:30pm 20.2 22.9 17.8 86 1.5 CALM 0 0 0 0 1014.6 1014.6 0.0
01/10:00pm 19.9 22.3 17.1 84 1.7 CALM 0 0 0 0 1014.5 1014.5 0.0
01/09:30pm 20.1 22.5 16.9 82 1.9 CALM 0 0 0 0 1014.3 1014.3 0.0
01/09:00pm 20.5 22.9 16.9 80 2.2 CALM 0 0 0 0 1013.9 1013.9 0.0
01/08:30pm 21.4 23.9 17.2 77 2.6 CALM 0 0 0 0 1013.7 1013.7 0.0
01/08:00pm 22.0 24.6 17.4 75 2.8 CALM 0 0 0 0 1013.3 1013.3 0.0
01/07:30pm 23.0 25.7 17.7 72 3.3 CALM 0 2 0 1 1013.0 1013.0 0.0
01/07:00pm 24.4 26.9 18.1 68 4.0 NNW 2 4 1 2 1012.6 1012.6 0.0
01/06:30pm 25.5 27.6 18.2 64 4.6 NNW 4 9 2 5 1012.5 1012.5 0.0
01/06:00pm 26.5 28.3 18.4 61 5.2 NW 6 9 3 5 1012.6 1012.6 0.0
01/05:30pm 26.9 28.5 18.2 59 5.5 NW 7 11 4 6 1012.4 1012.4 0.0
01/05:00pm 27.4 29.2 18.7 59 5.6 NW 7 13 4 7 1012.4 1012.4 0.0
01/04:30pm 28.3 30.0 18.4 55 6.3 WNW 7 13 4 7 1012.4 1012.4 0.0
01/04:00pm 27.9 29.0 18.0 55 6.3 NW 9 15 5 8 1012.5 1012.5 0.0
01/03:30pm 28.5 29.4 18.3 54 6.5 NNW 11 17 6 9 1012.4 1012.4 0.0
01/03:00pm 28.3 28.9 17.8 53 6.7 NNW 11 19 6 10 1012.5 1012.5 0.0
01/02:30pm 29.3 30.1 18.1 51 7.2 NNW 11 19 6 10 1013.0 1013.0 0.0
01/02:00pm 29.1 30.0 18.5 52 6.8 NNW 11 19 6 10 1013.6 1013.6 0.0
01/01:30pm 29.1 30.8 18.5 52 6.8 NW 7 15 4 8 1014.0 1014.0 0.0
01/01:00pm 29.1 31.3 21.1 62 5.3 NNW 11 22 6 12 1014.3 1014.3 0.0
01/12:30pm 28.8 30.7 19.7 58 5.9 NNE 9 17 5 9 1014.8 1014.8 0.0
01/12:00pm 29.0 30.3 17.5 49 7.3 NNE 7 17 4 9 1015.3 1015.3 0.0
01/11:30am 28.7 29.6 18.5 54 6.5 ENE 11 17 6 9 1015.7 1015.7 0.0
01/11:00am 27.6 29.2 19.1 59 5.5 ENE 9 17 5 9 1015.9 1015.9 0.0
01/10:30am 27.3 29.5 20.4 66 4.5 ENE 9 15 5 8 1016.1 1016.1 0.0
01/10:00am 26.6 29.4 20.9 71 3.8 E 7 13 4 7 1016.1 1016.1 0.0
01/09:30am 25.9 28.3 20.9 74 3.3 E 9 13 5 7 1016.0 1016.0 0.0

Latest Capital City Observations: Canberra | Sydney | Melbourne | Brisbane | Adelaide | Perth | Hobart | Darwin

Other Formats:

Comma delimited format used in spreadsheet applications
http://www.bom.gov.au/fwo/IDD60901/IDD60901.94116.axf

JavaScript Object Notation format (JSON) in row-major order
http://www.bom.gov.au/fwo/IDD60901/IDD60901.94116.json